createdAt,value
2018-03-18T00:02:01.052Z,-3.02
2018-03-18T00:04:29.246Z,-3.07
2018-03-18T00:06:57.201Z,-3.11
2018-03-18T00:09:25.177Z,-2.87
2018-03-18T00:11:53.347Z,-3.02
2018-03-18T00:14:21.256Z,-3.07
2018-03-18T00:16:49.350Z,-3.00
2018-03-18T00:19:17.575Z,-3.15
2018-03-18T00:21:45.762Z,-3.12
2018-03-18T00:24:14.003Z,-3.03
2018-03-18T00:26:41.922Z,-3.02
2018-03-18T00:29:09.954Z,-3.20
2018-03-18T00:31:37.994Z,-3.21
2018-03-18T00:34:06.029Z,-2.97
2018-03-18T00:36:33.973Z,-3.16
2018-03-18T00:39:02.084Z,-3.10
2018-03-18T00:41:30.216Z,-3.18
2018-03-18T00:43:58.434Z,-3.08
2018-03-18T00:46:26.729Z,-3.03
2018-03-18T00:48:54.858Z,-3.35
2018-03-18T00:51:34.666Z,-3.34
2018-03-18T00:54:02.855Z,-3.38
2018-03-18T00:56:31.002Z,-3.35
2018-03-18T00:58:59.069Z,-3.34
2018-03-18T01:01:27.092Z,-3.20
2018-03-18T01:03:55.189Z,-3.26
2018-03-18T01:06:23.138Z,-3.19
2018-03-18T01:08:51.211Z,-3.17
2018-03-18T01:11:19.257Z,-3.34
2018-03-18T01:13:47.150Z,-3.15
2018-03-18T01:16:15.184Z,-3.06
2018-03-18T01:18:43.147Z,-3.22
2018-03-18T01:21:11.205Z,-3.20
2018-03-18T01:23:39.407Z,-3.19
2018-03-18T01:26:07.380Z,-3.45
2018-03-18T01:28:35.291Z,-3.55
2018-03-18T01:31:03.286Z,-3.38
2018-03-18T01:33:31.238Z,-3.42
2018-03-18T01:35:59.266Z,-3.43
2018-03-18T01:38:27.380Z,-3.46
2018-03-18T01:40:55.339Z,-3.48
2018-03-18T01:43:23.339Z,-3.41
2018-03-18T01:45:51.521Z,-3.38
2018-03-18T01:48:19.495Z,-3.40
2018-03-18T01:50:47.611Z,-3.61
2018-03-18T01:53:22.097Z,-3.55
2018-03-18T01:55:49.999Z,-3.63
2018-03-18T01:58:17.939Z,-3.68
2018-03-18T02:00:46.040Z,-3.90
2018-03-18T02:03:13.965Z,-3.87
2018-03-18T02:05:42.071Z,-3.55
2018-03-18T02:08:09.973Z,-3.76
2018-03-18T02:10:37.906Z,-3.76
2018-03-18T02:13:05.900Z,-3.86
2018-03-18T02:15:33.865Z,-3.79
2018-03-18T02:18:01.810Z,-3.51
2018-03-18T02:20:29.770Z,-3.89
2018-03-18T02:22:57.784Z,-3.80
2018-03-18T02:25:25.732Z,-3.61
2018-03-18T02:27:53.654Z,-3.67
2018-03-18T02:30:21.650Z,-3.76
2018-03-18T02:32:49.801Z,-3.75
2018-03-18T02:35:17.737Z,-3.85
2018-03-18T02:37:45.667Z,-3.63
2018-03-18T02:40:13.605Z,-3.54
2018-03-18T02:42:41.538Z,-3.69
2018-03-18T02:45:09.466Z,-3.65
2018-03-18T02:47:37.406Z,-3.68
2018-03-18T02:50:05.333Z,-3.93
2018-03-18T02:52:33.243Z,-3.79
2018-03-18T02:55:01.280Z,-3.65
2018-03-18T02:57:29.285Z,-3.46
2018-03-18T02:59:57.222Z,-3.66
2018-03-18T03:02:25.118Z,-3.63
2018-03-18T03:04:53.123Z,-3.62
2018-03-18T03:07:21.055Z,-3.54
2018-03-18T03:09:49.105Z,-3.55
2018-03-18T03:12:17.056Z,-3.58
2018-03-18T03:14:44.996Z,-3.57
2018-03-18T03:17:12.932Z,-3.71
2018-03-18T03:19:40.837Z,-3.57
2018-03-18T03:22:08.763Z,-3.76
2018-03-18T03:24:36.712Z,-3.68
2018-03-18T03:27:04.634Z,-3.64
2018-03-18T03:29:32.562Z,-3.64
2018-03-18T03:32:00.487Z,-3.76
2018-03-18T03:34:28.414Z,-3.70
2018-03-18T03:36:56.347Z,-3.78
2018-03-18T03:39:24.270Z,-3.74
2018-03-18T03:41:52.176Z,-3.75
2018-03-18T03:44:20.083Z,-3.78
2018-03-18T03:46:47.993Z,-3.69
2018-03-18T03:49:16.020Z,-3.87
2018-03-18T03:51:43.889Z,-3.92
2018-03-18T03:54:11.806Z,-3.86
2018-03-18T03:56:39.731Z,-3.68
2018-03-18T03:59:07.658Z,-3.90
2018-03-18T04:01:35.580Z,-3.91
2018-03-18T04:04:03.502Z,-3.79
2018-03-18T04:06:31.401Z,-3.72
2018-03-18T04:08:59.332Z,-3.75
2018-03-18T04:11:27.294Z,-3.67
2018-03-18T04:13:55.286Z,-3.65
2018-03-18T04:16:23.288Z,-3.91
2018-03-18T04:18:51.275Z,-3.84
2018-03-18T04:21:19.310Z,-3.69
2018-03-18T04:23:47.295Z,-3.61
2018-03-18T04:26:15.301Z,-3.67
2018-03-18T04:28:43.269Z,-3.66
2018-03-18T04:31:11.257Z,-3.69
2018-03-18T04:33:39.242Z,-3.70
2018-03-18T04:36:07.209Z,-3.48
2018-03-18T04:38:35.198Z,-3.91
2018-03-18T04:41:03.166Z,-3.77
2018-03-18T04:43:31.218Z,-3.81
2018-03-18T04:45:59.194Z,-3.81
2018-03-18T04:48:27.190Z,-3.70
2018-03-18T04:50:55.190Z,-3.78
2018-03-18T04:53:23.296Z,-3.95
2018-03-18T04:55:51.302Z,-4.01
2018-03-18T04:58:19.347Z,-3.95
2018-03-18T05:00:47.316Z,-4.05
2018-03-18T05:03:15.352Z,-3.78
2018-03-18T05:05:43.437Z,-3.85
2018-03-18T05:08:11.454Z,-3.86
2018-03-18T05:10:39.441Z,-3.86
2018-03-18T05:13:07.497Z,-3.96
2018-03-18T05:15:35.496Z,-3.83
2018-03-18T05:18:03.481Z,-4.07
2018-03-18T05:20:31.480Z,-3.89
2018-03-18T05:22:59.478Z,-4.02
2018-03-18T05:25:27.514Z,-3.80
2018-03-18T05:27:55.538Z,-3.75
2018-03-18T05:30:23.523Z,-3.94
2018-03-18T05:32:51.551Z,-3.76
2018-03-18T05:35:19.555Z,-3.90
2018-03-18T05:37:47.571Z,-4.00
2018-03-18T05:40:15.579Z,-3.94
2018-03-18T05:42:43.563Z,-3.99
2018-03-18T05:45:11.604Z,-4.01
2018-03-18T05:47:39.586Z,-3.91
2018-03-18T05:50:07.575Z,-3.80
2018-03-18T05:52:35.571Z,-3.70
2018-03-18T05:55:03.581Z,-3.80
2018-03-18T05:57:31.569Z,-3.57
2018-03-18T05:59:59.564Z,-3.48
2018-03-18T06:02:27.597Z,-3.21
2018-03-18T06:04:55.612Z,-3.11
2018-03-18T06:07:24.498Z,-3.25
2018-03-18T06:09:52.541Z,-2.64
2018-03-18T06:12:20.628Z,-2.76
2018-03-18T06:14:48.666Z,-2.52
2018-03-18T06:17:16.667Z,-2.58
2018-03-18T06:19:44.675Z,-2.66
2018-03-18T06:22:12.664Z,-2.43
2018-03-18T06:24:40.679Z,-2.22
2018-03-18T06:27:08.750Z,-2.34
2018-03-18T06:29:36.759Z,-2.34
2018-03-18T06:32:04.763Z,-2.13
2018-03-18T06:34:32.771Z,-2.28
2018-03-18T06:37:00.827Z,-1.94
2018-03-18T06:39:28.843Z,-1.47
2018-03-18T06:41:56.839Z,-1.21
2018-03-18T06:44:24.918Z,-1.79
2018-03-18T06:46:53.005Z,-1.09
2018-03-18T06:49:21.001Z,-1.38
2018-03-18T06:51:48.986Z,-1.36
2018-03-18T06:54:17.379Z,-1.02
2018-03-18T06:56:45.630Z,-1.29
2018-03-18T06:59:13.648Z,-1.18
2018-03-18T07:01:41.647Z,-1.17
2018-03-18T07:04:09.779Z,-0.74
2018-03-18T07:06:37.770Z,-1.08
2018-03-18T07:09:05.800Z,-0.83
2018-03-18T07:11:33.788Z,-0.11
2018-03-18T07:14:02.798Z,0.04
2018-03-18T07:16:31.407Z,-0.11
2018-03-18T07:18:59.421Z,0.04
2018-03-18T07:21:27.455Z,0.06
2018-03-18T07:23:55.562Z,0.42
2018-03-18T07:26:23.869Z,0.53
2018-03-18T07:28:52.103Z,0.17
2018-03-18T07:31:20.109Z,0.22
2018-03-18T07:33:48.206Z,0.28
2018-03-18T07:36:16.206Z,0.81
2018-03-18T07:38:44.863Z,0.47
2018-03-18T07:41:12.854Z,0.29
2018-03-18T07:43:45.132Z,0.68
2018-03-18T07:46:13.583Z,0.72
2018-03-18T07:48:41.602Z,1.37
2018-03-18T07:51:09.716Z,1.11
2018-03-18T07:53:37.760Z,1.41
2018-03-18T07:56:05.758Z,1.75
2018-03-18T07:58:33.800Z,1.87
2018-03-18T08:01:01.770Z,2.05
2018-03-18T08:03:29.794Z,1.83
2018-03-18T08:05:58.559Z,1.99
2018-03-18T08:08:26.577Z,2.23
2018-03-18T08:10:54.742Z,2.73
2018-03-18T08:13:22.769Z,2.60
2018-03-18T08:15:50.874Z,3.02
2018-03-18T08:18:18.971Z,3.04
2018-03-18T08:20:46.965Z,3.19
2018-03-18T08:23:14.936Z,3.27
2018-03-18T08:25:42.919Z,3.89
2018-03-18T08:28:10.913Z,3.80
2018-03-18T08:30:38.904Z,3.87
2018-03-18T08:33:06.910Z,3.92
2018-03-18T08:35:34.906Z,3.71
2018-03-18T08:38:03.208Z,3.93
2018-03-18T08:40:31.228Z,3.56
2018-03-18T08:42:59.217Z,4.10
2018-03-18T08:45:27.211Z,3.75
2018-03-18T08:47:55.233Z,3.95
2018-03-18T08:50:23.240Z,4.07
2018-03-18T08:52:51.895Z,4.24
2018-03-18T08:55:19.901Z,4.03
2018-03-18T08:57:48.072Z,3.90
2018-03-18T09:00:16.073Z,4.16
2018-03-18T09:02:44.082Z,4.68
2018-03-18T09:05:12.066Z,4.48
2018-03-18T09:07:40.111Z,4.74
2018-03-18T09:10:08.119Z,4.97
2018-03-18T09:12:36.145Z,4.83
2018-03-18T09:15:04.298Z,5.30
2018-03-18T09:17:32.312Z,5.06
2018-03-18T09:20:00.376Z,5.51
2018-03-18T09:22:28.370Z,6.07
2018-03-18T09:24:56.435Z,6.48
2018-03-18T09:27:24.477Z,5.85
2018-03-18T09:29:52.467Z,5.98
2018-03-18T09:32:20.475Z,6.28
2018-03-18T09:34:48.488Z,6.56
2018-03-18T09:37:17.175Z,6.37
2018-03-18T09:39:45.214Z,7.01
2018-03-18T09:42:13.215Z,7.11
2018-03-18T09:44:41.283Z,7.16
2018-03-18T09:47:09.270Z,8.08
2018-03-18T09:49:37.335Z,7.96
2018-03-18T09:52:05.328Z,6.96
2018-03-18T09:54:33.378Z,6.53
2018-03-18T09:57:01.362Z,7.22
2018-03-18T09:59:29.378Z,7.59
2018-03-18T10:01:57.375Z,7.50
2018-03-18T10:04:25.388Z,7.76
2018-03-18T10:06:53.399Z,7.32
2018-03-18T10:09:21.420Z,7.64
2018-03-18T10:11:49.412Z,7.52
2018-03-18T10:14:17.569Z,7.35
2018-03-18T10:16:45.685Z,7.43
2018-03-18T10:19:13.708Z,7.74
2018-03-18T10:21:41.760Z,7.99
2018-03-18T10:24:09.758Z,8.86
2018-03-18T10:26:37.765Z,8.13
2018-03-18T10:29:05.742Z,8.19
2018-03-18T10:31:33.774Z,8.32
2018-03-18T10:34:01.775Z,8.02
2018-03-18T10:36:30.386Z,8.34
2018-03-18T10:38:58.382Z,8.03
2018-03-18T10:41:26.384Z,8.46
2018-03-18T10:43:54.369Z,8.77
2018-03-18T10:46:23.160Z,8.42
2018-03-18T10:48:51.178Z,8.42
2018-03-18T10:51:19.271Z,8.59
2018-03-18T10:53:47.291Z,8.35
2018-03-18T10:56:15.306Z,8.04
2018-03-18T10:58:43.374Z,7.92
2018-03-18T11:01:17.451Z,7.63
2018-03-18T11:03:45.462Z,7.99
2018-03-18T11:06:13.458Z,8.02
2018-03-18T11:08:41.465Z,8.28
2018-03-18T11:11:10.304Z,8.70
2018-03-18T11:13:38.338Z,8.46
2018-03-18T11:16:06.328Z,7.90
2018-03-18T11:18:34.312Z,7.78
2018-03-18T11:21:02.368Z,7.89
2018-03-18T11:23:30.382Z,8.15
2018-03-18T11:25:58.412Z,8.63
2018-03-18T11:28:26.415Z,8.59
2018-03-18T11:30:54.430Z,8.01
2018-03-18T11:33:22.458Z,8.06
2018-03-18T11:35:50.457Z,7.83
2018-03-18T11:38:18.603Z,7.87
2018-03-18T11:40:46.678Z,8.56
2018-03-18T11:43:15.631Z,8.34
2018-03-18T11:45:43.833Z,8.22
2018-03-18T11:48:12.826Z,7.49
2018-03-18T11:50:41.315Z,7.59
2018-03-18T11:53:09.342Z,8.03
2018-03-18T11:55:37.466Z,7.43
2018-03-18T11:58:05.457Z,8.24
2018-03-18T12:00:33.511Z,7.94
2018-03-18T12:03:01.538Z,8.17
2018-03-18T12:05:29.581Z,7.97
2018-03-18T12:07:57.608Z,8.22
2018-03-18T12:10:25.653Z,8.23
2018-03-18T12:12:53.673Z,7.79
2018-03-18T12:15:21.669Z,7.85
2018-03-18T12:17:49.676Z,8.16
2018-03-18T12:20:17.673Z,8.76
2018-03-18T12:22:45.696Z,8.80
2018-03-18T12:25:13.663Z,8.57
2018-03-18T12:27:41.662Z,8.24
2018-03-18T12:30:09.654Z,7.96
2018-03-18T12:32:37.646Z,7.82
2018-03-18T12:35:05.666Z,7.73
2018-03-18T12:37:33.683Z,7.29
2018-03-18T12:40:13.787Z,7.50
2018-03-18T12:42:53.730Z,6.97
2018-03-18T12:45:21.758Z,7.59
2018-03-18T12:47:49.758Z,7.68
2018-03-18T12:50:17.801Z,7.42
2018-03-18T12:52:45.822Z,6.93
2018-03-18T12:55:13.868Z,7.28
2018-03-18T12:57:43.530Z,7.64
2018-03-18T13:00:12.185Z,7.92
2018-03-18T13:02:40.240Z,7.34
2018-03-18T13:05:08.213Z,7.81
2018-03-18T13:07:36.245Z,7.44
2018-03-18T13:10:04.659Z,7.75
2018-03-18T13:12:32.734Z,7.54
2018-03-18T13:15:00.775Z,7.25
2018-03-18T13:17:28.755Z,7.63
2018-03-18T13:19:56.821Z,7.73
2018-03-18T13:22:25.743Z,7.45
2018-03-18T13:24:53.823Z,7.53
2018-03-18T13:27:21.792Z,7.42
2018-03-18T13:29:49.795Z,7.12
2018-03-18T13:32:17.831Z,7.23
2018-03-18T13:34:46.186Z,7.31
2018-03-18T13:37:14.174Z,6.49
2018-03-18T13:39:42.163Z,6.66
2018-03-18T13:42:10.285Z,6.72
2018-03-18T13:44:38.294Z,6.95
2018-03-18T13:47:06.286Z,6.97
2018-03-18T13:49:34.303Z,6.35
2018-03-18T13:52:02.298Z,6.73
2018-03-18T13:54:30.911Z,6.89
2018-03-18T13:56:59.607Z,6.86
2018-03-18T13:59:27.785Z,6.67
2018-03-18T14:01:56.771Z,6.34
2018-03-18T14:04:25.566Z,6.21
2018-03-18T14:06:54.032Z,6.15
2018-03-18T14:09:22.047Z,6.02
2018-03-18T14:11:52.120Z,6.10
2018-03-18T14:14:20.971Z,6.49
2018-03-18T14:16:49.087Z,6.43
2018-03-18T14:19:17.271Z,6.33
2018-03-18T14:21:46.293Z,6.06
2018-03-18T14:24:14.391Z,5.84
2018-03-18T14:26:43.563Z,5.84
2018-03-18T14:29:11.599Z,5.52
2018-03-18T14:31:39.864Z,5.94
2018-03-18T14:34:07.899Z,6.29
2018-03-18T14:36:35.940Z,5.82
2018-03-18T14:39:03.934Z,5.77
2018-03-18T14:41:31.914Z,5.12
2018-03-18T14:43:59.933Z,4.42
2018-03-18T14:46:27.933Z,4.13
2018-03-18T14:48:55.930Z,3.78
2018-03-18T14:51:24.000Z,3.55
2018-03-18T14:53:51.998Z,3.34
2018-03-18T14:56:20.396Z,3.58
2018-03-18T14:58:48.398Z,3.56
2018-03-18T15:01:17.326Z,2.93
2018-03-18T15:03:45.333Z,2.80
2018-03-18T15:06:13.540Z,2.55
2018-03-18T15:08:41.615Z,2.94
2018-03-18T15:11:09.838Z,2.58
2018-03-18T15:13:37.860Z,2.58
2018-03-18T15:16:05.892Z,2.55
2018-03-18T15:18:33.883Z,2.41
2018-03-18T15:21:01.930Z,2.36
2018-03-18T15:23:30.670Z,2.28
2018-03-18T15:26:00.447Z,2.23
2018-03-18T15:28:28.442Z,2.20
2018-03-18T15:30:56.440Z,2.09
2018-03-18T15:33:24.504Z,2.24
2018-03-18T15:35:52.578Z,2.41
2018-03-18T15:38:20.560Z,2.41
2018-03-18T15:40:48.622Z,1.92
2018-03-18T15:43:16.792Z,1.78
2018-03-18T15:45:44.900Z,1.48
2018-03-18T15:48:12.912Z,1.42
2018-03-18T15:50:42.591Z,1.79
2018-03-18T15:53:10.602Z,1.28
2018-03-18T15:55:38.755Z,1.70
2018-03-18T15:58:06.777Z,1.53
2018-03-18T16:00:34.826Z,1.41
2018-03-18T16:03:02.897Z,1.42
2018-03-18T16:05:30.943Z,1.54
2018-03-18T16:07:59.012Z,1.51
2018-03-18T16:10:27.016Z,1.29
2018-03-18T16:12:55.030Z,1.27
2018-03-18T16:15:23.047Z,1.37
2018-03-18T16:17:51.110Z,1.13
2018-03-18T16:20:19.218Z,1.14
2018-03-18T16:22:47.308Z,0.98
2018-03-18T16:25:15.901Z,1.09
2018-03-18T16:27:44.531Z,1.24
2018-03-18T16:30:24.380Z,1.23
2018-03-18T16:32:52.345Z,1.14
2018-03-18T16:35:21.160Z,1.25
2018-03-18T16:37:49.161Z,1.12
2018-03-18T16:40:17.288Z,1.11
2018-03-18T16:42:45.375Z,0.92
2018-03-18T16:45:14.019Z,0.92
2018-03-18T16:47:42.031Z,1.04
2018-03-18T16:50:10.098Z,0.99
2018-03-18T16:52:38.167Z,1.05
2018-03-18T16:55:06.334Z,0.98
2018-03-18T16:57:34.515Z,0.90
2018-03-18T17:00:03.770Z,0.81
2018-03-18T17:02:32.388Z,0.73
2018-03-18T17:05:00.421Z,0.87
2018-03-18T17:07:28.457Z,0.84
2018-03-18T17:09:56.600Z,1.01
2018-03-18T17:12:24.617Z,0.82
2018-03-18T17:14:52.649Z,0.69
2018-03-18T17:17:20.687Z,0.50
2018-03-18T17:19:48.700Z,0.34
2018-03-18T17:22:16.710Z,0.54
2018-03-18T17:24:44.721Z,0.75
2018-03-18T17:27:12.736Z,0.50
2018-03-18T17:29:40.735Z,0.42
2018-03-18T17:32:08.739Z,0.32
2018-03-18T17:34:36.746Z,0.37
2018-03-18T17:37:05.410Z,0.44
2018-03-18T17:39:33.431Z,0.23
2018-03-18T17:42:02.054Z,0.60
2018-03-18T17:44:43.071Z,0.53
2018-03-18T17:47:22.926Z,0.47
2018-03-18T17:50:16.834Z,0.45
2018-03-18T17:52:56.821Z,0.46
2018-03-18T17:55:31.131Z,0.60
2018-03-18T17:57:59.516Z,0.52
2018-03-18T18:00:27.642Z,0.40
2018-03-18T18:02:56.029Z,0.33
2018-03-18T18:05:24.117Z,0.14
2018-03-18T18:07:52.246Z,0.20
2018-03-18T18:10:20.852Z,0.42
2018-03-18T18:12:49.165Z,0.42
2018-03-18T18:15:17.955Z,0.37
2018-03-18T18:17:46.127Z,0.18
2018-03-18T18:20:14.243Z,0.27
2018-03-18T18:22:42.307Z,0.24
2018-03-18T18:25:10.307Z,0.37
2018-03-18T18:27:38.393Z,0.23
2018-03-18T18:30:07.188Z,0.34
2018-03-18T18:32:37.062Z,0.13
2018-03-18T18:35:05.082Z,0.22
2018-03-18T18:37:33.217Z,0.22
2018-03-18T18:40:01.358Z,0.20
2018-03-18T18:42:30.066Z,0.16
2018-03-18T18:44:58.187Z,0.20
2018-03-18T18:47:26.380Z,0.06
2018-03-18T18:49:55.415Z,0.25
2018-03-18T18:52:23.822Z,0.28
2018-03-18T18:54:51.887Z,0.29
2018-03-18T18:57:19.892Z,0.29
2018-03-18T18:59:48.035Z,0.05
2018-03-18T19:02:16.114Z,0.20
2018-03-18T19:04:44.243Z,0.28
2018-03-18T19:07:12.271Z,0.20
2018-03-18T19:09:40.268Z,0.08
2018-03-18T19:12:08.627Z,0.02
2018-03-18T19:14:36.653Z,0.01
2018-03-18T19:17:04.693Z,0.12
2018-03-18T19:19:33.855Z,0.14
2018-03-18T19:22:02.030Z,0.21
2018-03-18T19:24:30.415Z,0.18
2018-03-18T19:26:58.413Z,0.09
2018-03-18T19:29:27.603Z,-0.09
2018-03-18T19:31:56.457Z,0.07
2018-03-18T19:34:24.464Z,-0.02
2018-03-18T19:36:52.471Z,0.07
2018-03-18T19:39:20.474Z,-0.09
2018-03-18T19:41:48.513Z,0.03
2018-03-18T19:44:16.516Z,-0.03
2018-03-18T19:46:44.591Z,0.02
2018-03-18T19:49:12.657Z,-0.05
2018-03-18T19:51:40.668Z,0.28
2018-03-18T19:54:08.770Z,1.01
2018-03-18T19:56:37.795Z,1.40
2018-03-18T19:59:06.322Z,1.11
2018-03-18T20:01:34.375Z,0.89
2018-03-18T20:04:02.450Z,1.25
2018-03-18T20:06:30.485Z,1.42
2018-03-18T20:08:58.636Z,1.28
2018-03-18T20:11:27.420Z,1.24
2018-03-18T20:13:55.460Z,1.49
2018-03-18T20:16:23.472Z,1.12
2018-03-18T20:18:51.613Z,0.64
2018-03-18T20:21:19.689Z,0.32
2018-03-18T20:23:47.702Z,0.32
2018-03-18T20:26:15.727Z,0.16
2018-03-18T20:28:44.156Z,0.08
2018-03-18T20:31:12.846Z,-0.05
2018-03-18T20:33:41.461Z,-0.00
2018-03-18T20:36:09.554Z,0.21
2018-03-18T20:38:38.197Z,0.18
2018-03-18T20:41:06.212Z,0.18
2018-03-18T20:43:34.219Z,-0.12
2018-03-18T20:46:02.251Z,-0.11
2018-03-18T20:48:30.268Z,0.06
2018-03-18T20:50:59.276Z,-0.23
2018-03-18T20:53:27.331Z,-0.24
2018-03-18T20:55:55.378Z,-0.21
2018-03-18T20:58:23.433Z,-0.16
2018-03-18T21:00:51.444Z,-0.23
2018-03-18T21:03:19.518Z,-0.28
2018-03-18T21:05:47.538Z,-0.13
2018-03-18T21:08:15.634Z,-0.16
2018-03-18T21:10:43.646Z,-0.27
2018-03-18T21:13:12.749Z,-0.36
2018-03-18T21:15:41.039Z,-0.39
2018-03-18T21:18:09.057Z,-0.36
2018-03-18T21:20:37.072Z,-0.45
2018-03-18T21:23:05.088Z,-0.46
2018-03-18T21:25:33.098Z,-0.50
2018-03-18T21:28:01.308Z,-0.57
2018-03-18T21:30:29.486Z,-0.50
2018-03-18T21:32:57.523Z,-0.47
2018-03-18T21:35:25.719Z,-0.56
2018-03-18T21:37:53.970Z,-0.55
2018-03-18T21:40:21.957Z,-0.51
2018-03-18T21:42:49.986Z,-0.51
2018-03-18T21:45:17.979Z,0.01
2018-03-18T21:47:46.089Z,-0.26
2018-03-18T21:50:14.114Z,-0.45
2018-03-18T21:52:42.122Z,0.04
2018-03-18T21:55:10.359Z,0.63
2018-03-18T21:57:38.504Z,0.95
2018-03-18T22:00:06.516Z,1.03
2018-03-18T22:02:34.576Z,1.14
2018-03-18T22:05:02.830Z,1.12
2018-03-18T22:07:30.858Z,1.13
2018-03-18T22:09:58.954Z,1.23
2018-03-18T22:12:27.055Z,0.78
2018-03-18T22:14:58.228Z,0.22
2018-03-18T22:17:26.190Z,-0.10
2018-03-18T22:19:54.389Z,-0.12
2018-03-18T22:22:22.874Z,-0.06
2018-03-18T22:24:50.924Z,-0.39
2018-03-18T22:27:19.293Z,-0.50
2018-03-18T22:29:47.368Z,-0.64
2018-03-18T22:32:15.522Z,-0.53
2018-03-18T22:34:43.570Z,-0.74
2018-03-18T22:37:11.573Z,-0.70
2018-03-18T22:39:39.788Z,-0.69
2018-03-18T22:42:07.830Z,-0.71
2018-03-18T22:44:35.839Z,-0.71
2018-03-18T22:47:03.921Z,-0.55
2018-03-18T22:49:31.946Z,-0.75
2018-03-18T22:51:59.954Z,-0.86
2018-03-18T22:54:27.967Z,-0.79
2018-03-18T22:56:56.095Z,-0.87
2018-03-18T22:59:24.079Z,-0.84
2018-03-18T23:01:52.135Z,-0.90
2018-03-18T23:04:21.005Z,-0.84
2018-03-18T23:06:49.061Z,-0.81
2018-03-18T23:09:17.131Z,-0.37
2018-03-18T23:11:45.169Z,-0.43
2018-03-18T23:14:13.241Z,-0.38
2018-03-18T23:16:41.270Z,0.01
2018-03-18T23:19:09.394Z,-0.32
2018-03-18T23:21:37.493Z,-0.52
2018-03-18T23:24:05.635Z,-0.70
2018-03-18T23:26:33.706Z,-0.81
2018-03-18T23:29:01.706Z,-0.88
2018-03-18T23:31:29.762Z,-0.97
2018-03-18T23:33:57.773Z,-0.97
2018-03-18T23:36:25.828Z,-0.87
2018-03-18T23:38:53.902Z,-1.03
2018-03-18T23:41:21.966Z,-1.12
2018-03-18T23:43:50.041Z,-1.17
2018-03-18T23:46:18.040Z,-1.14
2018-03-18T23:48:46.115Z,-1.16
2018-03-18T23:51:14.118Z,-1.18
2018-03-18T23:53:42.125Z,-1.30
2018-03-18T23:56:10.153Z,-1.21
2018-03-18T23:58:38.166Z,-1.30
